sensor_id;sensor_type;location;lat;lon;timestamp;pressure;altitude;pressure_sealevel;temperature;humidity
13348;BME280;6743;49.934;9.138;2023-01-29T00:00:36;101806.06;;;0.21;100.00
13348;BME280;6743;49.934;9.138;2023-01-29T00:03:03;101811.28;;;0.21;100.00
13348;BME280;6743;49.934;9.138;2023-01-29T00:05:29;101790.84;;;0.11;100.00
13348;BME280;6743;49.934;9.138;2023-01-29T00:07:56;101822.53;;;0.23;100.00
13348;BME280;6743;49.934;9.138;2023-01-29T00:10:22;101818.09;;;0.25;100.00
13348;BME280;6743;49.934;9.138;2023-01-29T00:12:48;101823.31;;;0.25;100.00
13348;BME280;6743;49.934;9.138;2023-01-29T00:15:16;101812.87;;;0.25;100.00
13348;BME280;6743;49.934;9.138;2023-01-29T00:17:42;101820.72;;;0.25;100.00
13348;BME280;6743;49.934;9.138;2023-01-29T00:20:10;101826.72;;;0.27;100.00
13348;BME280;6743;49.934;9.138;2023-01-29T00:22:36;101817.13;;;0.28;100.00
13348;BME280;6743;49.934;9.138;2023-01-29T00:25:02;101813.69;;;0.27;100.00
13348;BME280;6743;49.934;9.138;2023-01-29T00:27:29;101808.56;;;0.24;100.00
13348;BME280;6743;49.934;9.138;2023-01-29T00:29:54;101806.91;;;0.22;100.00
13348;BME280;6743;49.934;9.138;2023-01-29T00:32:36;101821.88;;;0.18;100.00
13348;BME280;6743;49.934;9.138;2023-01-29T00:35:02;101811.62;;;0.14;100.00
13348;BME280;6743;49.934;9.138;2023-01-29T00:37:29;101819.44;;;0.14;100.00
13348;BME280;6743;49.934;9.138;2023-01-29T00:39:55;101827.19;;;0.15;100.00
13348;BME280;6743;49.934;9.138;2023-01-29T00:42:21;101826.34;;;0.15;100.00
13348;BME280;6743;49.934;9.138;2023-01-29T00:45:06;101830.72;;;0.14;100.00
13348;BME280;6743;49.934;9.138;2023-01-29T00:47:32;101829.94;;;0.12;100.00
13348;BME280;6743;49.934;9.138;2023-01-29T00:49:58;101825.63;;;0.11;100.00
13348;BME280;6743;49.934;9.138;2023-01-29T00:52:25;101839.53;;;0.12;100.00
13348;BME280;6743;49.934;9.138;2023-01-29T00:54:52;101833.41;;;0.13;100.00
13348;BME280;6743;49.934;9.138;2023-01-29T00:57:18;101835.94;;;0.14;100.00
13348;BME280;6743;49.934;9.138;2023-01-29T00:59:44;101831.56;;;0.15;100.00
13348;BME280;6743;49.934;9.138;2023-01-29T01:02:10;101821.97;;;0.15;100.00
13348;BME280;6743;49.934;9.138;2023-01-29T01:04:55;101827.19;;;0.15;100.00
13348;BME280;6743;49.934;9.138;2023-01-29T01:07:21;101818.47;;;0.16;100.00
13348;BME280;6743;49.934;9.138;2023-01-29T01:09:47;101820.16;;;0.17;100.00
13348;BME280;6743;49.934;9.138;2023-01-29T01:12:31;101811.44;;;0.18;100.00
13348;BME280;6743;49.934;9.138;2023-01-29T01:14:57;101807.06;;;0.19;100.00
13348;BME280;6743;49.934;9.138;2023-01-29T01:17:24;101807.91;;;0.19;100.00
13348;BME280;6743;49.934;9.138;2023-01-29T01:19:50;101801.91;;;0.17;100.00
13348;BME280;6743;49.934;9.138;2023-01-29T01:22:16;101797.53;;;0.18;100.00
13348;BME280;6743;49.934;9.138;2023-01-29T01:24:42;101787.19;;;0.15;100.00
13348;BME280;6743;49.934;9.138;2023-01-29T01:27:08;101803.53;;;0.20;100.00
13348;BME280;6743;49.934;9.138;2023-01-29T01:29:34;101804.44;;;0.19;100.00
13348;BME280;6743;49.934;9.138;2023-01-29T01:32:00;101800.09;;;0.19;100.00
13348;BME280;6743;49.934;9.138;2023-01-29T01:34:27;101805.31;;;0.19;100.00
13348;BME280;6743;49.934;9.138;2023-01-29T01:36:53;101796.63;;;0.19;100.00
13348;BME280;6743;49.934;9.138;2023-01-29T01:39:20;101795.78;;;0.18;100.00
13348;BME280;6743;49.934;9.138;2023-01-29T01:41:46;101793.97;;;0.20;100.00
13348;BME280;6743;49.934;9.138;2023-01-29T01:47:12;101802.75;;;0.18;100.00
13348;BME280;6743;49.934;9.138;2023-01-29T01:49:40;101797.59;;;0.16;100.00
13348;BME280;6743;49.934;9.138;2023-01-29T01:52:07;101790.59;;;0.17;100.00
13348;BME280;6743;49.934;9.138;2023-01-29T01:54:33;101784.53;;;0.16;100.00
13348;BME280;6743;49.934;9.138;2023-01-29T01:57:02;101783.69;;;0.16;100.00
13348;BME280;6743;49.934;9.138;2023-01-29T01:59:34;101778.50;;;0.14;100.00
13348;BME280;6743;49.934;9.138;2023-01-29T02:02:01;101780.22;;;0.15;100.00
13348;BME280;6743;49.934;9.138;2023-01-29T02:04:47;101784.59;;;0.15;100.00
13348;BME280;6743;49.934;9.138;2023-01-29T02:07:33;101775.09;;;0.14;100.00
13348;BME280;6743;49.934;9.138;2023-01-29T02:10:17;101771.69;;;0.12;100.00
13348;BME280;6743;49.934;9.138;2023-01-29T02:12:44;101770.03;;;0.09;100.00
13348;BME280;6743;49.934;9.138;2023-01-29T02:15:11;101755.41;;;0.05;100.00
13348;BME280;6743;49.934;9.138;2023-01-29T02:17:38;101762.41;;;0.05;100.00
13348;BME280;6743;49.934;9.138;2023-01-29T02:20:10;101760.75;;;0.02;100.00
13348;BME280;6743;49.934;9.138;2023-01-29T02:26:14;101754.91;;;-0.05;100.00
13348;BME280;6743;49.934;9.138;2023-01-29T02:28:46;101753.41;;;-0.10;100.00
13348;BME280;6743;49.934;9.138;2023-01-29T02:31:24;101748.25;;;-0.12;100.00
13348;BME280;6743;49.934;9.138;2023-01-29T02:34:00;101750.84;;;-0.12;100.00
13348;BME280;6743;49.934;9.138;2023-01-29T02:36:35;101747.44;;;-0.14;100.00
13348;BME280;6743;49.934;9.138;2023-01-29T02:39:12;101744.94;;;-0.15;100.00
13348;BME280;6743;49.934;9.138;2023-01-29T02:41:43;101757.16;;;-0.17;100.00
13348;BME280;6743;49.934;9.138;2023-01-29T02:44:17;101753.91;;;-0.22;100.00
13348;BME280;6743;49.934;9.138;2023-01-29T02:46:53;101763.62;;;-0.27;100.00
13348;BME280;6743;49.934;9.138;2023-01-29T02:49:25;101757.75;;;-0.32;100.00
13348;BME280;6743;49.934;9.138;2023-01-29T02:51:58;101757.09;;;-0.37;100.00
13348;BME280;6743;49.934;9.138;2023-01-29T02:54:31;101762.50;;;-0.42;100.00
13348;BME280;6743;49.934;9.138;2023-01-29T02:57:00;101765.94;;;-0.42;100.00
13348;BME280;6743;49.934;9.138;2023-01-29T02:59:31;101767.75;;;-0.44;100.00
13348;BME280;6743;49.934;9.138;2023-01-29T03:02:02;101763.62;;;-0.49;100.00
13348;BME280;6743;49.934;9.138;2023-01-29T03:04:32;101770.50;;;-0.48;100.00
13348;BME280;6743;49.934;9.138;2023-01-29T03:07:02;101783.56;;;-0.48;100.00
13348;BME280;6743;49.934;9.138;2023-01-29T03:09:33;101787.09;;;-0.49;100.00
13348;BME280;6743;49.934;9.138;2023-01-29T03:12:04;101782.72;;;-0.49;100.00
13348;BME280;6743;49.934;9.138;2023-01-29T03:14:45;101795.75;;;-0.49;100.00
13348;BME280;6743;49.934;9.138;2023-01-29T03:17:34;101798.47;;;-0.52;100.00
13348;BME280;6743;49.934;9.138;2023-01-29T03:20:03;101805.53;;;-0.55;100.00
13348;BME280;6743;49.934;9.138;2023-01-29T03:22:33;101796.19;;;-0.61;100.00
13348;BME280;6743;49.934;9.138;2023-01-29T03:25:01;101795.41;;;-0.63;100.00
13348;BME280;6743;49.934;9.138;2023-01-29T03:27:51;101798.97;;;-0.65;100.00
13348;BME280;6743;49.934;9.138;2023-01-29T03:30:40;101804.19;;;-0.65;100.00
13348;BME280;6743;49.934;9.138;2023-01-29T03:33:27;101791.25;;;-0.68;100.00
13348;BME280;6743;49.934;9.138;2023-01-29T03:35:59;101786.00;;;-0.67;100.00
13348;BME280;6743;49.934;9.138;2023-01-29T03:38:28;101786.00;;;-0.67;100.00
13348;BME280;6743;49.934;9.138;2023-01-29T03:40:59;101788.59;;;-0.67;100.00
13348;BME280;6743;49.934;9.138;2023-01-29T03:43:43;101783.38;;;-0.67;100.00
13348;BME280;6743;49.934;9.138;2023-01-29T03:46:17;101780.78;;;-0.67;100.00
13348;BME280;6743;49.934;9.138;2023-01-29T03:48:51;101788.50;;;-0.64;100.00
13348;BME280;6743;49.934;9.138;2023-01-29T03:51:24;101800.63;;;-0.63;100.00
13348;BME280;6743;49.934;9.138;2023-01-29T03:53:59;101809.34;;;-0.64;100.00
13348;BME280;6743;49.934;9.138;2023-01-29T03:56:35;101806.75;;;-0.64;100.00
13348;BME280;6743;49.934;9.138;2023-01-29T03:59:12;101804.13;;;-0.64;100.00
13348;BME280;6743;49.934;9.138;2023-01-29T04:01:43;101798.12;;;-0.66;100.00
13348;BME280;6743;49.934;9.138;2023-01-29T04:04:15;101794.72;;;-0.68;100.00
13348;BME280;6743;49.934;9.138;2023-01-29T04:06:45;101792.09;;;-0.68;100.00
13348;BME280;6743;49.934;9.138;2023-01-29T04:09:16;101787.88;;;-0.70;100.00
13348;BME280;6743;49.934;9.138;2023-01-29T04:11:49;101783.66;;;-0.74;100.00
13348;BME280;6743;49.934;9.138;2023-01-29T04:14:17;101774.09;;;-0.74;100.00
13348;BME280;6743;49.934;9.138;2023-01-29T04:16:47;101777.56;;;-0.73;100.00
13348;BME280;6743;49.934;9.138;2023-01-29T04:19:16;101786.22;;;-0.73;100.00
13348;BME280;6743;49.934;9.138;2023-01-29T04:21:42;101786.25;;;-0.74;100.00
13348;BME280;6743;49.934;9.138;2023-01-29T04:24:11;101772.75;;;-0.84;100.00
13348;BME280;6743;49.934;9.138;2023-01-29T04:26:54;101778.69;;;-0.81;100.00
13348;BME280;6743;49.934;9.138;2023-01-29T04:29:31;101777.06;;;-0.83;100.00
13348;BME280;6743;49.934;9.138;2023-01-29T04:32:07;101770.22;;;-0.87;100.00
13348;BME280;6743;49.934;9.138;2023-01-29T04:34:40;101771.97;;;-0.88;100.00
13348;BME280;6743;49.934;9.138;2023-01-29T04:37:15;101770.28;;;-0.89;100.00
13348;BME280;6743;49.934;9.138;2023-01-29T04:39:46;101766.91;;;-0.91;100.00
13348;BME280;6743;49.934;9.138;2023-01-29T04:42:22;101760.94;;;-0.94;100.00
13348;BME280;6743;49.934;9.138;2023-01-29T04:44:58;101741.91;;;-0.96;100.00
13348;BME280;6743;49.934;9.138;2023-01-29T04:47:32;101725.59;;;-1.01;100.00
13348;BME280;6743;49.934;9.138;2023-01-29T04:50:06;101740.41;;;-1.03;100.00
13348;BME280;6743;49.934;9.138;2023-01-29T04:52:38;101748.34;;;-1.06;100.00
13348;BME280;6743;49.934;9.138;2023-01-29T04:55:13;101738.84;;;-1.07;100.00
13348;BME280;6743;49.934;9.138;2023-01-29T04:57:46;101734.53;;;-1.08;100.00
13348;BME280;6743;49.934;9.138;2023-01-29T05:00:17;101748.34;;;-1.06;100.00
13348;BME280;6743;49.934;9.138;2023-01-29T05:02:45;101741.50;;;-1.09;100.00
13348;BME280;6743;49.934;9.138;2023-01-29T05:05:12;101736.31;;;-1.10;100.00
13348;BME280;6743;49.934;9.138;2023-01-29T05:07:40;101745.94;;;-1.11;100.00
13348;BME280;6743;49.934;9.138;2023-01-29T05:10:09;101751.19;;;-1.12;100.00
13348;BME280;6743;49.934;9.138;2023-01-29T05:12:37;101754.56;;;-1.10;100.00
13348;BME280;6743;49.934;9.138;2023-01-29T05:15:10;101758.00;;;-1.10;100.00
13348;BME280;6743;49.934;9.138;2023-01-29T05:17:37;101767.59;;;-1.10;100.00
13348;BME280;6743;49.934;9.138;2023-01-29T05:20:05;101784.19;;;-1.13;100.00
13348;BME280;6743;49.934;9.138;2023-01-29T05:22:31;101774.62;;;-1.12;100.00
13348;BME280;6743;49.934;9.138;2023-01-29T05:24:57;101778.97;;;-1.13;100.00
13348;BME280;6743;49.934;9.138;2023-01-29T05:27:28;101781.66;;;-1.16;100.00
13348;BME280;6743;49.934;9.138;2023-01-29T05:30:14;101777.31;;;-1.15;100.00
13348;BME280;6743;49.934;9.138;2023-01-29T05:32:40;101769.47;;;-1.14;100.00
13348;BME280;6743;49.934;9.138;2023-01-29T05:35:07;101763.44;;;-1.16;100.00
13348;BME280;6743;49.934;9.138;2023-01-29T05:37:33;101753.84;;;-1.14;100.00
13348;BME280;6743;49.934;9.138;2023-01-29T05:39:59;101746.91;;;-1.15;100.00
13348;BME280;6743;49.934;9.138;2023-01-29T05:42:25;101751.19;;;-1.12;100.00
13348;BME280;6743;49.934;9.138;2023-01-29T05:44:51;101759.78;;;-1.10;100.00
13348;BME280;6743;49.934;9.138;2023-01-29T05:47:18;101757.91;;;-1.07;100.00
13348;BME280;6743;49.934;9.138;2023-01-29T05:49:44;101762.19;;;-1.04;100.00
13348;BME280;6743;49.934;9.138;2023-01-29T05:52:10;101757.75;;;-1.02;100.00
13348;BME280;6743;49.934;9.138;2023-01-29T05:54:36;101751.69;;;-1.03;100.00
13348;BME280;6743;49.934;9.138;2023-01-29T05:57:02;101756.00;;;-1.02;100.00
13348;BME280;6743;49.934;9.138;2023-01-29T05:59:28;101754.28;;;-1.03;100.00
13348;BME280;6743;49.934;9.138;2023-01-29T06:01:55;101761.25;;;-1.03;100.00
13348;BME280;6743;49.934;9.138;2023-01-29T06:04:21;101755.37;;;-1.08;100.00
13348;BME280;6743;49.934;9.138;2023-01-29T06:06:47;101749.53;;;-1.15;100.00
13348;BME280;6743;49.934;9.138;2023-01-29T06:09:14;101766.53;;;-1.05;100.00
13348;BME280;6743;49.934;9.138;2023-01-29T06:11:40;101766.53;;;-1.05;100.00
13348;BME280;6743;49.934;9.138;2023-01-29T06:14:06;101765.72;;;-1.07;100.00
13348;BME280;6743;49.934;9.138;2023-01-29T06:16:32;101770.09;;;-1.07;100.00
13348;BME280;6743;49.934;9.138;2023-01-29T06:18:58;101774.41;;;-1.06;100.00
13348;BME280;6743;49.934;9.138;2023-01-29T06:21:24;101765.72;;;-1.07;100.00
13348;BME280;6743;49.934;9.138;2023-01-29T06:23:52;101755.37;;;-1.08;100.00
13348;BME280;6743;49.934;9.138;2023-01-29T06:26:19;101727.16;;;-1.21;100.00
13348;BME280;6743;49.934;9.138;2023-01-29T06:28:47;101745.25;;;-1.17;100.00
13348;BME280;6743;49.934;9.138;2023-01-29T06:31:13;101754.47;;;-1.07;100.00
13348;BME280;6743;49.934;9.138;2023-01-29T06:33:39;101743.25;;;-1.09;100.00
13348;BME280;6743;49.934;9.138;2023-01-29T06:36:06;101757.97;;;-1.08;100.00
13348;BME280;6743;49.934;9.138;2023-01-29T06:38:32;101754.56;;;-1.10;100.00
13348;BME280;6743;49.934;9.138;2023-01-29T06:40:58;101763.31;;;-1.11;100.00
13348;BME280;6743;49.934;9.138;2023-01-29T06:43:25;101753.66;;;-1.09;100.00
13348;BME280;6743;49.934;9.138;2023-01-29T06:45:52;101761.44;;;-1.08;100.00
13348;BME280;6743;49.934;9.138;2023-01-29T06:48:18;101747.47;;;-1.05;100.00
13348;BME280;6743;49.934;9.138;2023-01-29T06:50:44;101747.56;;;-1.08;100.00
13348;BME280;6743;49.934;9.138;2023-01-29T06:53:11;101758.87;;;-1.09;100.00
13348;BME280;6743;49.934;9.138;2023-01-29T06:55:37;101748.66;;;-1.15;100.00
13348;BME280;6743;49.934;9.138;2023-01-29T06:58:07;101762.28;;;-1.07;100.00
13348;BME280;6743;49.934;9.138;2023-01-29T07:00:34;101751.19;;;-1.12;100.00
13348;BME280;6743;49.934;9.138;2023-01-29T07:03:01;101751.22;;;-1.14;100.00
13348;BME280;6743;49.934;9.138;2023-01-29T07:05:27;101749.66;;;-1.18;100.00
13348;BME280;6743;49.934;9.138;2023-01-29T07:07:53;101731.06;;;-1.32;100.00
13348;BME280;6743;49.934;9.138;2023-01-29T07:10:19;101738.69;;;-1.28;100.00
13348;BME280;6743;49.934;9.138;2023-01-29T07:12:44;101766.03;;;-1.16;100.00
13348;BME280;6743;49.934;9.138;2023-01-29T07:15:12;101772.16;;;-1.17;100.00
13348;BME280;6743;49.934;9.138;2023-01-29T07:17:38;101776.47;;;-1.16;100.00
13348;BME280;6743;49.934;9.138;2023-01-29T07:20:05;101778.16;;;-1.15;100.00
13348;BME280;6743;49.934;9.138;2023-01-29T07:22:32;101786.88;;;-1.16;100.00
13348;BME280;6743;49.934;9.138;2023-01-29T07:24:58;101790.28;;;-1.14;100.00
13348;BME280;6743;49.934;9.138;2023-01-29T07:27:24;101778.97;;;-1.13;100.00
13348;BME280;6743;49.934;9.138;2023-01-29T07:29:50;101793.69;;;-1.12;100.00
13348;BME280;6743;49.934;9.138;2023-01-29T07:32:16;101787.50;;;-1.09;100.00
13348;BME280;6743;49.934;9.138;2023-01-29T07:34:43;101793.56;;;-1.09;100.00
13348;BME280;6743;49.934;9.138;2023-01-29T07:37:09;101790.88;;;-1.06;100.00
13348;BME280;6743;49.934;9.138;2023-01-29T07:39:35;101789.13;;;-1.05;100.00
13348;BME280;6743;49.934;9.138;2023-01-29T07:42:01;101778.72;;;-1.05;100.00
13348;BME280;6743;49.934;9.138;2023-01-29T07:44:27;101773.50;;;-1.05;100.00
13348;BME280;6743;49.934;9.138;2023-01-29T07:46:53;101770.03;;;-1.06;100.00
13348;BME280;6743;49.934;9.138;2023-01-29T07:49:19;101778.59;;;-1.02;100.00
13348;BME280;6743;49.934;9.138;2023-01-29T07:51:46;101773.38;;;-1.02;100.00
13348;BME280;6743;49.934;9.138;2023-01-29T07:54:12;101784.50;;;-0.97;100.00
13348;BME280;6743;49.934;9.138;2023-01-29T07:56:38;101777.50;;;-0.97;100.00
13348;BME280;6743;49.934;9.138;2023-01-29T07:59:04;101773.97;;;-0.94;100.00
13348;BME280;6743;49.934;9.138;2023-01-29T08:01:30;101773.97;;;-0.94;100.00
13348;BME280;6743;49.934;9.138;2023-01-29T08:03:56;101784.28;;;-0.91;100.00
13348;BME280;6743;49.934;9.138;2023-01-29T08:06:22;101785.06;;;-0.89;100.00
13348;BME280;6743;49.934;9.138;2023-01-29T08:08:48;101785.00;;;-0.88;100.00
13348;BME280;6743;49.934;9.138;2023-01-29T08:11:14;101784.88;;;-0.83;100.00
13348;BME280;6743;49.934;9.138;2023-01-29T08:13:41;101793.41;;;-0.80;100.00
13348;BME280;6743;49.934;9.138;2023-01-29T08:16:07;101789.84;;;-0.77;100.00
13348;BME280;6743;49.934;9.138;2023-01-29T08:18:37;101792.25;;;-0.71;100.00
13348;BME280;6743;49.934;9.138;2023-01-29T08:21:03;101798.16;;;-0.67;100.00
13348;BME280;6743;49.934;9.138;2023-01-29T08:23:29;101803.28;;;-0.64;100.00
13348;BME280;6743;49.934;9.138;2023-01-29T08:25:56;101796.31;;;-0.64;100.00
13348;BME280;6743;49.934;9.138;2023-01-29T08:28:22;101809.22;;;-0.61;100.00
13348;BME280;6743;49.934;9.138;2023-01-29T08:30:48;101812.69;;;-0.60;100.00
13348;BME280;6743;49.934;9.138;2023-01-29T08:33:13;101815.28;;;-0.60;100.00
13348;BME280;6743;49.934;9.138;2023-01-29T08:35:39;101820.50;;;-0.60;100.00
13348;BME280;6743;49.934;9.138;2023-01-29T08:38:05;101801.31;;;-0.58;100.00
13348;BME280;6743;49.934;9.138;2023-01-29T08:40:32;101795.06;;;-0.54;100.00
13348;BME280;6743;49.934;9.138;2023-01-29T08:43:00;101788.75;;;-0.48;100.00
13348;BME280;6743;49.934;9.138;2023-01-29T08:45:26;101777.28;;;-0.43;100.00
13348;BME280;6743;49.934;9.138;2023-01-29T08:47:52;101770.94;;;-0.35;100.00
13348;BME280;6743;49.934;9.138;2023-01-29T08:50:18;101753.34;;;-0.30;100.00
13348;BME280;6743;49.934;9.138;2023-01-29T08:52:44;101766.13;;;-0.24;100.00
13348;BME280;6743;49.934;9.138;2023-01-29T08:55:11;101772.81;;;-0.17;100.00
13348;BME280;6743;49.934;9.138;2023-01-29T08:57:37;101762.50;;;-0.20;100.00
13348;BME280;6743;49.934;9.138;2023-01-29T09:00:06;101774.22;;;-0.09;100.00
13348;BME280;6743;49.934;9.138;2023-01-29T09:02:33;101779.41;;;-0.07;100.00
13348;BME280;6743;49.934;9.138;2023-01-29T09:04:59;101781.06;;;-0.06;100.00
13348;BME280;6743;49.934;9.138;2023-01-29T09:07:25;101781.91;;;-0.06;100.00
13348;BME280;6743;49.934;9.138;2023-01-29T09:09:51;101780.28;;;-0.08;100.00
13348;BME280;6743;49.934;9.138;2023-01-29T09:12:17;101789.81;;;-0.07;100.00
13348;BME280;6743;49.934;9.138;2023-01-29T09:14:43;101774.62;;;-0.19;100.00
13348;BME280;6743;49.934;9.138;2023-01-29T09:17:09;101795.09;;;-0.09;100.00
13348;BME280;6743;49.934;9.138;2023-01-29T09:19:35;101797.66;;;-0.07;100.00
13348;BME280;6743;49.934;9.138;2023-01-29T09:22:02;101802.87;;;-0.07;100.00
13348;BME280;6743;49.934;9.138;2023-01-29T09:24:28;101809.75;;;-0.06;100.00
13348;BME280;6743;49.934;9.138;2023-01-29T09:26:54;101814.13;;;-0.07;100.00
13348;BME280;6743;49.934;9.138;2023-01-29T09:29:20;101823.66;;;-0.06;100.00
13348;BME280;6743;49.934;9.138;2023-01-29T09:31:46;101842.91;;;-0.08;100.00
13348;BME280;6743;49.934;9.138;2023-01-29T09:34:13;101847.41;;;-0.13;100.00
13348;BME280;6743;49.934;9.138;2023-01-29T09:36:38;101844.28;;;-0.21;100.00
13348;BME280;6743;49.934;9.138;2023-01-29T09:39:04;101842.56;;;-0.22;100.00
13348;BME280;6743;49.934;9.138;2023-01-29T09:41:42;101832.56;;;-0.34;100.00
13348;BME280;6743;49.934;9.138;2023-01-29T09:44:18;101860.13;;;-0.27;100.00
13348;BME280;6743;49.934;9.138;2023-01-29T09:46:47;101859.19;;;-0.25;100.00
13348;BME280;6743;49.934;9.138;2023-01-29T09:49:21;101861.84;;;-0.26;100.00
13348;BME280;6743;49.934;9.138;2023-01-29T09:51:52;101868.66;;;-0.22;100.00
13348;BME280;6743;49.934;9.138;2023-01-29T09:54:23;101858.88;;;-0.17;100.00
13348;BME280;6743;49.934;9.138;2023-01-29T09:56:54;101855.25;;;-0.13;100.00
13348;BME280;6743;49.934;9.138;2023-01-29T09:59:21;101848.13;;;-0.08;100.00
13348;BME280;6743;49.934;9.138;2023-01-29T10:01:56;101848.88;;;-0.06;100.00
13348;BME280;6743;49.934;9.138;2023-01-29T10:04:44;101847.22;;;-0.07;100.00
13348;BME280;6743;49.934;9.138;2023-01-29T10:07:25;101848.84;;;-0.05;100.00
13348;BME280;6743;49.934;9.138;2023-01-29T10:10:10;101834.94;;;-0.05;100.00
13348;BME280;6743;49.934;9.138;2023-01-29T10:12:50;101817.53;;;-0.05;100.00
13348;BME280;6743;49.934;9.138;2023-01-29T10:15:27;101822.69;;;-0.03;100.00
13348;BME280;6743;49.934;9.138;2023-01-29T10:18:17;101819.19;;;-0.02;100.00
13348;BME280;6743;49.934;9.138;2023-01-29T10:21:00;101810.38;;;0.00;100.00
13348;BME280;6743;49.934;9.138;2023-01-29T10:23:32;101801.72;;;0.00;100.00
13348;BME280;6743;49.934;9.138;2023-01-29T10:25:59;101794.72;;;0.00;100.00
13348;BME280;6743;49.934;9.138;2023-01-29T10:28:30;101800.34;;;0.13;100.00
13348;BME280;6743;49.934;9.138;2023-01-29T10:31:00;101795.87;;;0.15;100.00
13348;BME280;6743;49.934;9.138;2023-01-29T10:33:32;101779.97;;;0.21;100.00
13348;BME280;6743;49.934;9.138;2023-01-29T10:36:05;101784.12;;;0.27;100.00
13348;BME280;6743;49.934;9.138;2023-01-29T10:38:42;101776.09;;;0.31;100.00
13348;BME280;6743;49.934;9.138;2023-01-29T10:41:27;101775.00;;;0.37;100.00
13348;BME280;6743;49.934;9.138;2023-01-29T10:44:05;101771.28;;;0.43;100.00
13348;BME280;6743;49.934;9.138;2023-01-29T10:46:46;101760.56;;;0.49;100.00
13348;BME280;6743;49.934;9.138;2023-01-29T10:49:23;101741.31;;;0.51;100.00
13348;BME280;6743;49.934;9.138;2023-01-29T10:52:14;101752.25;;;0.61;100.00
13348;BME280;6743;49.934;9.138;2023-01-29T10:54:54;101738.13;;;0.65;100.00
13348;BME280;6743;49.934;9.138;2023-01-29T10:57:36;101728.47;;;0.67;100.00
13348;BME280;6743;49.934;9.138;2023-01-29T11:00:08;101737.88;;;0.71;100.00
13348;BME280;6743;49.934;9.138;2023-01-29T11:02:42;101744.78;;;0.72;100.00
13348;BME280;6743;49.934;9.138;2023-01-29T11:05:19;101732.63;;;0.71;100.00
13348;BME280;6743;49.934;9.138;2023-01-29T11:08:01;101723.09;;;0.70;100.00
13348;BME280;6743;49.934;9.138;2023-01-29T11:10:30;101719.62;;;0.69;100.00
13348;BME280;6743;49.934;9.138;2023-01-29T11:12:58;101718.72;;;0.70;100.00
13348;BME280;6743;49.934;9.138;2023-01-29T11:15:26;101711.16;;;0.64;100.00
13348;BME280;6743;49.934;9.138;2023-01-29T11:18:03;101713.06;;;0.61;100.00
13348;BME280;6743;49.934;9.138;2023-01-29T11:20:30;101709.78;;;0.56;100.00
13348;BME280;6743;49.934;9.138;2023-01-29T11:22:57;101699.28;;;0.57;100.00
13348;BME280;6743;49.934;9.138;2023-01-29T11:25:24;101697.47;;;0.59;100.00
13348;BME280;6743;49.934;9.138;2023-01-29T11:27:54;101692.25;;;0.59;100.00
13348;BME280;6743;49.934;9.138;2023-01-29T11:30:22;101686.94;;;0.61;100.00
13348;BME280;6743;49.934;9.138;2023-01-29T11:32:51;101677.25;;;0.63;100.00
13348;BME280;6743;49.934;9.138;2023-01-29T11:35:20;101668.47;;;0.65;100.00
13348;BME280;6743;49.934;9.138;2023-01-29T11:37:47;101665.78;;;0.67;100.00
13348;BME280;6743;49.934;9.138;2023-01-29T11:40:37;101665.06;;;0.63;100.00
13348;BME280;6743;49.934;9.138;2023-01-29T11:43:27;101647.13;;;0.56;100.00
13348;BME280;6743;49.934;9.138;2023-01-29T11:45:56;101648.53;;;0.63;100.00
13348;BME280;6743;49.934;9.138;2023-01-29T11:48:27;101653.69;;;0.64;100.00
13348;BME280;6743;49.934;9.138;2023-01-29T11:50:56;101650.19;;;0.65;100.00
13348;BME280;6743;49.934;9.138;2023-01-29T11:53:33;101648.41;;;0.66;100.00
13348;BME280;6743;49.934;9.138;2023-01-29T11:56:05;101637.00;;;0.68;100.00
13348;BME280;6743;49.934;9.138;2023-01-29T11:58:40;101639.53;;;0.70;100.00
13348;BME280;6743;49.934;9.138;2023-01-29T12:01:06;101634.97;;;0.75;100.00
13348;BME280;6743;49.934;9.138;2023-01-29T12:03:35;101638.22;;;0.80;100.00
13348;BME280;6743;49.934;9.138;2023-01-29T12:06:06;101632.81;;;0.83;100.00
13348;BME280;6743;49.934;9.138;2023-01-29T12:08:38;101640.59;;;0.85;100.00
13348;BME280;6743;49.934;9.138;2023-01-29T12:11:11;101646.84;;;0.82;100.00
13348;BME280;6743;49.934;9.138;2023-01-29T12:13:37;101648.44;;;0.85;100.00
13348;BME280;6743;49.934;9.138;2023-01-29T12:16:12;101642.25;;;0.87;100.00
13348;BME280;6743;49.934;9.138;2023-01-29T12:18:43;101631.91;;;0.84;100.00
13348;BME280;6743;49.934;9.138;2023-01-29T12:21:13;101624.22;;;0.81;100.00
13348;BME280;6743;49.934;9.138;2023-01-29T12:23:46;101621.41;;;0.86;100.00
13348;BME280;6743;49.934;9.138;2023-01-29T12:26:23;101619.97;;;0.78;100.00
13348;BME280;6743;49.934;9.138;2023-01-29T12:28:56;101610.66;;;0.73;100.00
13348;BME280;6743;49.934;9.138;2023-01-29T12:31:33;101618.62;;;0.70;100.00
13348;BME280;6743;49.934;9.138;2023-01-29T12:34:05;101604.53;;;0.74;100.00
13348;BME280;6743;49.934;9.138;2023-01-29T12:36:37;101593.00;;;0.78;100.00
13348;BME280;6743;49.934;9.138;2023-01-29T12:39:05;101595.56;;;0.79;100.00
13348;BME280;6743;49.934;9.138;2023-01-29T12:41:37;101585.81;;;0.83;100.00
13348;BME280;6743;49.934;9.138;2023-01-29T12:44:09;101582.16;;;0.87;100.00
13348;BME280;6743;49.934;9.138;2023-01-29T12:46:40;101593.56;;;0.85;100.00
13348;BME280;6743;49.934;9.138;2023-01-29T12:49:12;101587.44;;;0.86;100.00
13348;BME280;6743;49.934;9.138;2023-01-29T12:51:44;101582.37;;;0.83;100.00
13348;BME280;6743;49.934;9.138;2023-01-29T12:54:18;101583.00;;;0.88;100.00
13348;BME280;6743;49.934;9.138;2023-01-29T12:56:48;101584.75;;;0.87;100.00
13348;BME280;6743;49.934;9.138;2023-01-29T12:59:20;101576.63;;;0.93;100.00
13348;BME280;6743;49.934;9.138;2023-01-29T13:01:52;101571.91;;;1.01;100.00
13348;BME280;6743;49.934;9.138;2023-01-29T13:04:28;101566.31;;;1.09;100.00
13348;BME280;6743;49.934;9.138;2023-01-29T13:07:05;101555.56;;;1.15;100.00
13348;BME280;6743;49.934;9.138;2023-01-29T13:09:36;101561.72;;;1.14;100.00
13348;BME280;6743;49.934;9.138;2023-01-29T13:12:10;101527.97;;;0.91;100.00
13348;BME280;6743;49.934;9.138;2023-01-29T13:14:43;101540.47;;;1.03;100.00
13348;BME280;6743;49.934;9.138;2023-01-29T13:17:14;101532.34;;;1.09;100.00